Time;durP1;ratioP1;P1;durP2;ratioP2;P2;SDS_P1;SDS_P2;PMS_P1;PMS_P2;Temp;Humidity;BMP_temperature;BMP_pressure;BME280_temperature;BME280_humidity;BME280_pressure;Samples;Min_cycle;Max_cycle;Signal;HPM_P1;HPM_P2
2022/12/12 00:00:31;;;;;;;11.47;7.60;;;0.20;99.90;;;;;;6181869;23;20414;-52
2022/12/12 00:03:00;;;;;;;12.43;6.23;;;0.20;99.90;;;;;;6181996;23;20412;-49
2022/12/12 00:05:27;;;;;;;15.90;5.67;;;0.10;99.90;;;;;;6182002;23;20412;-47
2022/12/12 00:07:54;;;;;;;18.30;7.53;;;0.20;99.90;;;;;;6182739;23;20436;-61
2022/12/12 00:10:22;;;;;;;16.63;7.53;;;0.20;99.90;;;;;;6183032;23;20475;-57
2022/12/12 00:12:49;;;;;;;17.60;6.53;;;0.10;99.90;;;;;;6182573;23;20420;-47
2022/12/12 00:15:17;;;;;;;10.60;6.30;;;0.00;99.90;;;;;;6182677;23;20402;-48
2022/12/12 00:17:44;;;;;;;12.00;7.60;;;-0.10;99.90;;;;;;6176292;23;20456;-55
2022/12/12 00:20:11;;;;;;;19.70;10.53;;;-0.20;99.90;;;;;;6182933;23;20405;-48
2022/12/12 00:22:38;;;;;;;18.27;7.93;;;-0.10;99.90;;;;;;6182693;23;20413;-45
2022/12/12 00:25:06;;;;;;;20.93;7.87;;;0.00;99.90;;;;;;6182201;23;20381;-52
2022/12/12 00:27:33;;;;;;;14.53;6.40;;;0.10;99.90;;;;;;6182693;23;20402;-53
2022/12/12 00:30:19;;;;;;;13.20;5.47;;;0.20;99.90;;;;;;6180185;23;20440;-52
2022/12/12 00:32:46;;;;;;;17.43;9.00;;;0.20;99.90;;;;;;6182021;23;20382;-48
2022/12/12 00:35:13;;;;;;;14.90;7.40;;;0.20;99.90;;;;;;6181691;23;20429;-54
2022/12/12 00:37:40;;;;;;;15.57;8.07;;;0.20;99.90;;;;;;6181609;23;20893;-48
2022/12/12 00:40:08;;;;;;;11.40;7.67;;;0.20;99.90;;;;;;6177533;23;20457;-53
2022/12/12 00:42:36;;;;;;;12.20;6.47;;;0.10;99.90;;;;;;6181817;23;20412;-51
2022/12/12 00:45:05;;;;;;;17.40;7.03;;;0.10;99.90;;;;;;6181820;23;20544;-51
2022/12/12 00:47:33;;;;;;;14.53;6.47;;;0.10;99.90;;;;;;6181835;23;20413;-53
2022/12/12 00:50:02;;;;;;;17.63;8.90;;;0.10;99.90;;;;;;6181932;23;20412;-59
2022/12/12 00:52:31;;;;;;;22.33;7.27;;;0.10;99.90;;;;;;6180701;23;20501;-46
2022/12/12 00:54:58;;;;;;;12.40;5.83;;;0.10;99.90;;;;;;6181823;23;20377;-53
2022/12/12 00:57:26;;;;;;;21.50;9.43;;;0.00;99.90;;;;;;6181396;23;20480;-49
2022/12/12 00:59:53;;;;;;;15.80;7.17;;;0.00;99.90;;;;;;6180661;23;20409;-50
2022/12/12 01:02:23;;;;;;;14.63;8.13;;;0.00;99.90;;;;;;6180593;23;20413;-53
2022/12/12 01:04:51;;;;;;;17.10;8.63;;;0.10;99.90;;;;;;6181710;23;20471;-54
2022/12/12 01:07:21;;;;;;;11.67;7.40;;;0.20;99.90;;;;;;6180877;23;20386;-47
2022/12/12 01:09:48;;;;;;;16.00;8.00;;;0.20;99.90;;;;;;6181036;23;20418;-47
2022/12/12 01:12:19;;;;;;;12.93;6.93;;;0.20;99.90;;;;;;6181312;23;20386;-51
2022/12/12 01:14:46;;;;;;;13.97;6.47;;;0.10;99.90;;;;;;6181969;23;20473;-54
2022/12/12 01:17:13;;;;;;;13.70;7.13;;;0.20;99.90;;;;;;6181771;23;20518;-50
2022/12/12 01:19:40;;;;;;;17.27;6.70;;;0.20;99.90;;;;;;6181119;23;20426;-54
2022/12/12 01:22:10;;;;;;;6.93;5.03;;;0.30;99.90;;;;;;6180626;23;20405;-52
2022/12/12 01:24:37;;;;;;;16.23;5.97;;;0.30;99.90;;;;;;6180928;23;20473;-52
2022/12/12 01:27:05;;;;;;;21.93;8.70;;;0.20;99.90;;;;;;6181398;23;20386;-48
2022/12/12 01:29:33;;;;;;;11.20;5.77;;;0.20;99.90;;;;;;6181640;23;20417;-53
2022/12/12 01:32:09;;;;;;;12.60;6.73;;;0.20;99.90;;;;;;6180788;23;20900;-50
2022/12/12 01:34:36;;;;;;;18.13;7.20;;;0.20;99.90;;;;;;6181254;23;20390;-51
2022/12/12 01:37:03;;;;;;;11.53;6.40;;;0.20;99.90;;;;;;6180846;23;20453;-47
2022/12/12 01:39:34;;;;;;;13.03;6.90;;;0.30;99.90;;;;;;6180886;23;20406;-52
2022/12/12 01:42:12;;;;;;;17.60;6.73;;;0.30;99.90;;;;;;6180162;23;20429;-48
2022/12/12 01:44:43;;;;;;;19.70;7.53;;;0.30;99.90;;;;;;6181369;23;20425;-48
2022/12/12 01:47:12;;;;;;;11.70;5.70;;;0.30;99.90;;;;;;6150327;23;20422;-49
2022/12/12 01:49:41;;;;;;;14.50;7.00;;;0.40;99.90;;;;;;6151049;23;20387;-53
2022/12/12 01:52:12;;;;;;;20.23;7.00;;;0.30;99.90;;;;;;6151120;23;20440;-50
2022/12/12 01:54:43;;;;;;;12.93;5.50;;;0.30;99.90;;;;;;6151026;23;20395;-50
2022/12/12 01:57:16;;;;;;;24.63;7.50;;;0.30;99.90;;;;;;6150911;23;20415;-56
2022/12/12 01:59:44;;;;;;;18.70;8.20;;;0.20;99.90;;;;;;6151166;23;20427;-47
2022/12/12 02:02:12;;;;;;;12.73;10.40;;;0.20;99.90;;;;;;6151193;23;20410;-54
2022/12/12 02:04:40;;;;;;;15.67;7.13;;;0.30;99.90;;;;;;6146512;23;20430;-52
2022/12/12 02:07:08;;;;;;;10.97;7.43;;;0.30;99.90;;;;;;6151043;23;20407;-55
2022/12/12 02:09:37;;;;;;;14.47;7.93;;;0.30;99.90;;;;;;6151273;23;20394;-50
2022/12/12 02:12:05;;;;;;;13.83;6.67;;;0.20;99.90;;;;;;6151009;23;20391;-57
2022/12/12 02:14:35;;;;;;;10.90;7.07;;;0.30;99.90;;;;;;6151136;23;20403;-53
2022/12/12 02:17:17;;;;;;;8.77;4.80;;;0.20;99.90;;;;;;6150766;23;20465;-56
2022/12/12 02:20:13;;;;;;;18.00;8.83;;;0.20;99.90;;;;;;6150450;23;20386;-53
2022/12/12 02:23:00;;;;;;;10.83;6.57;;;0.30;99.90;;;;;;6150766;23;20442;-56
2022/12/12 02:25:51;;;;;;;14.90;6.87;;;0.40;99.90;;;;;;6147371;23;20391;-54
2022/12/12 02:28:40;;;;;;;6.47;4.23;;;0.40;99.90;;;;;;6151037;23;20489;-54
2022/12/12 02:31:15;;;;;;;15.57;7.67;;;0.50;99.90;;;;;;6150798;23;20387;-55
2022/12/12 02:33:57;;;;;;;9.77;5.60;;;0.50;99.90;;;;;;6150384;23;20426;-54
2022/12/12 02:36:33;;;;;;;10.27;5.47;;;0.50;99.90;;;;;;6150644;23;20395;-51
2022/12/12 02:39:08;;;;;;;15.93;7.87;;;0.50;99.90;;;;;;6148863;23;20426;-53
2022/12/12 02:41:39;;;;;;;22.40;7.40;;;0.60;99.90;;;;;;6147789;23;20390;-51
2022/12/12 02:44:14;;;;;;;13.37;4.97;;;0.60;99.90;;;;;;6150278;23;20502;-55
2022/12/12 02:46:48;;;;;;;11.30;6.37;;;0.70;99.90;;;;;;6172751;23;20409;-55
2022/12/12 02:49:22;;;;;;;12.90;7.33;;;0.70;99.90;;;;;;6180057;23;20429;-52
2022/12/12 02:51:52;;;;;;;14.63;6.53;;;0.70;99.90;;;;;;6180485;23;20385;-52
2022/12/12 02:54:23;;;;;;;17.37;6.40;;;0.70;99.90;;;;;;6180574;23;20823;-50
2022/12/12 02:56:53;;;;;;;19.63;9.43;;;0.60;99.90;;;;;;6180269;23;20413;-50
2022/12/12 02:59:25;;;;;;;20.27;6.80;;;0.60;99.90;;;;;;6180391;23;20402;-47
2022/12/12 03:02:04;;;;;;;15.20;7.77;;;0.60;99.90;;;;;;6180626;23;20445;-58
2022/12/12 03:07:48;;;;;;;11.33;6.80;;;0.60;99.90;;;;;;6181043;23;20433;-53
2022/12/12 03:10:28;;;;;;;15.90;7.47;;;0.60;99.90;;;;;;6181215;23;20390;-56
2022/12/12 03:13:02;;;;;;;13.97;7.73;;;0.70;99.90;;;;;;6180880;23;20434;-51
2022/12/12 03:15:41;;;;;;;15.20;8.00;;;0.70;99.90;;;;;;6181054;23;20421;-50
2022/12/12 03:18:21;;;;;;;11.27;5.13;;;0.70;99.90;;;;;;6179996;23;20437;-62
2022/12/12 03:20:54;;;;;;;19.83;6.13;;;0.70;99.90;;;;;;6174298;23;20797;-56
2022/12/12 03:23:26;;;;;;;13.07;8.07;;;0.70;99.90;;;;;;6180284;23;20462;-51
2022/12/12 03:25:59;;;;;;;15.50;7.40;;;0.80;99.90;;;;;;6179312;23;20383;-50
2022/12/12 03:28:31;;;;;;;19.80;9.90;;;0.70;99.90;;;;;;6179535;23;20410;-50
2022/12/12 03:31:02;;;;;;;20.77;8.70;;;0.80;99.90;;;;;;6179835;23;20397;-49
2022/12/12 03:33:37;;;;;;;17.93;7.80;;;0.70;99.90;;;;;;6179302;23;20394;-50
2022/12/12 03:36:14;;;;;;;17.87;8.33;;;0.80;99.90;;;;;;6179477;23;20389;-52
2022/12/12 03:38:57;;;;;;;12.40;5.27;;;0.90;99.90;;;;;;6171610;23;20410;-50
2022/12/12 03:41:30;;;;;;;12.97;6.87;;;0.90;99.90;;;;;;6180417;23;20402;-54
2022/12/12 03:44:04;;;;;;;12.97;5.77;;;0.90;99.90;;;;;;6180405;23;20385;-52
2022/12/12 03:46:37;;;;;;;22.50;6.20;;;0.90;99.90;;;;;;6179800;23;20440;-49
2022/12/12 03:49:12;;;;;;;15.07;7.47;;;1.00;99.90;;;;;;6179801;23;20386;-48
2022/12/12 03:51:45;;;;;;;14.43;6.67;;;1.00;99.90;;;;;;6178986;23;20491;-51
2022/12/12 03:54:20;;;;;;;17.80;7.00;;;1.10;99.90;;;;;;6179691;23;20386;-46
2022/12/12 03:56:52;;;;;;;16.00;6.43;;;1.10;99.90;;;;;;6179062;23;20409;-55
2022/12/12 03:59:24;;;;;;;25.63;8.93;;;1.10;99.90;;;;;;6179247;23;20406;-51
2022/12/12 04:01:57;;;;;;;12.37;6.67;;;1.10;99.90;;;;;;6179888;23;20370;-54
2022/12/12 04:04:32;;;;;;;12.57;6.23;;;1.10;99.90;;;;;;6178838;23;20385;-52
2022/12/12 04:07:04;;;;;;;17.60;7.40;;;1.10;99.90;;;;;;6179699;23;20432;-52
2022/12/12 04:15:39;;;;;;;10.67;5.53;;;1.20;99.90;;;;;;6179658;23;20416;-51
2022/12/12 04:18:16;;;;;;;11.80;4.70;;;1.20;99.90;;;;;;6179420;23;20425;-51
2022/12/12 04:23:51;;;;;;;9.77;4.50;;;1.30;99.90;;;;;;6179915;23;20367;-56
2022/12/12 04:26:42;;;;;;;10.13;4.50;;;1.20;99.90;;;;;;6179288;23;20414;-52
2022/12/12 04:29:19;;;;;;;12.83;6.97;;;1.30;99.90;;;;;;6176180;23;20433;-49
2022/12/12 04:31:51;;;;;;;13.60;5.17;;;1.30;99.90;;;;;;6178461;23;20429;-54
2022/12/12 04:34:26;;;;;;;9.37;5.00;;;1.30;99.90;;;;;;6179483;23;20382;-58
2022/12/12 04:36:54;;;;;;;18.03;7.77;;;1.30;99.90;;;;;;6176825;23;20426;-54
2022/12/12 04:39:22;;;;;;;18.10;6.23;;;1.30;99.90;;;;;;6176571;23;20426;-54
2022/12/12 04:42:04;;;;;;;17.40;6.47;;;1.30;99.90;;;;;;6180935;23;20402;-52
2022/12/12 04:44:33;;;;;;;11.37;6.17;;;1.30;99.90;;;;;;6180485;23;20403;-53
2022/12/12 04:47:02;;;;;;;9.60;5.23;;;1.30;99.90;;;;;;6180594;23;20410;-48
2022/12/12 04:49:33;;;;;;;11.20;5.70;;;1.30;99.90;;;;;;6180558;23;20420;-55
2022/12/12 04:52:05;;;;;;;13.03;5.33;;;1.30;99.90;;;;;;6169944;23;20430;-50
2022/12/12 04:54:41;;;;;;;10.27;5.50;;;1.30;99.90;;;;;;6182151;23;20390;-50
2022/12/12 04:57:11;;;;;;;12.17;6.93;;;1.30;99.90;;;;;;6181326;23;20397;-57
2022/12/12 04:59:39;;;;;;;12.30;5.70;;;1.30;99.90;;;;;;6176940;23;20437;-57
2022/12/12 05:02:17;;;;;;;10.57;5.80;;;1.30;99.90;;;;;;6181317;23;20512;-53
2022/12/12 05:04:50;;;;;;;10.10;5.80;;;1.30;99.90;;;;;;6182239;23;20426;-47
2022/12/12 05:07:29;;;;;;;10.60;5.50;;;1.30;99.90;;;;;;6182021;23;20386;-47
2022/12/12 05:09:57;;;;;;;11.97;5.13;;;1.30;99.90;;;;;;6181977;23;20401;-48
2022/12/12 05:12:27;;;;;;;9.77;3.87;;;1.40;99.90;;;;;;6175148;23;20405;-58
2022/12/12 05:14:56;;;;;;;15.70;7.17;;;1.40;99.90;;;;;;6182631;23;20413;-55
2022/12/12 05:17:28;;;;;;;7.03;4.57;;;1.40;99.90;;;;;;6182169;23;20393;-55
2022/12/12 05:19:56;;;;;;;8.20;5.90;;;1.40;99.90;;;;;;6182673;23;20748;-52
2022/12/12 05:22:28;;;;;;;6.57;5.73;;;1.50;99.90;;;;;;6182483;23;20414;-54
2022/12/12 05:24:55;;;;;;;9.53;3.57;;;1.50;99.90;;;;;;6182698;23;20394;-53
2022/12/12 05:27:22;;;;;;;7.20;5.57;;;1.50;99.90;;;;;;6182599;23;20430;-53
2022/12/12 05:29:52;;;;;;;4.70;4.00;;;1.50;99.90;;;;;;6182616;23;20382;-54
2022/12/12 05:32:19;;;;;;;5.97;3.47;;;1.50;99.90;;;;;;6176405;23;20398;-50
2022/12/12 05:34:46;;;;;;;15.63;4.57;;;1.50;99.90;;;;;;6182212;23;20402;-54
2022/12/12 05:37:13;;;;;;;7.87;4.83;;;1.50;99.90;;;;;;6182166;23;20405;-54
2022/12/12 05:39:41;;;;;;;9.27;3.70;;;1.50;99.90;;;;;;6183261;23;20444;-53
2022/12/12 05:42:08;;;;;;;6.23;3.70;;;1.50;99.90;;;;;;6182288;23;20394;-54
2022/12/12 05:44:35;;;;;;;6.33;4.20;;;1.50;99.90;;;;;;6182291;23;20421;-51
2022/12/12 05:47:02;;;;;;;6.20;3.90;;;1.60;99.90;;;;;;6181936;23;20413;-54
2022/12/12 05:49:29;;;;;;;6.97;3.47;;;1.60;99.90;;;;;;6177109;23;20398;-51
2022/12/12 05:51:56;;;;;;;5.93;3.03;;;1.60;99.90;;;;;;6182185;23;20421;-55
2022/12/12 05:54:23;;;;;;;3.50;2.90;;;1.70;99.90;;;;;;6182629;23;20398;-47
2022/12/12 05:56:51;;;;;;;4.57;2.90;;;1.70;99.90;;;;;;6181987;23;20453;-45
2022/12/12 05:59:18;;;;;;;4.57;2.90;;;1.60;99.90;;;;;;6182688;23;20453;-53
2022/12/12 06:01:45;;;;;;;5.47;3.23;;;1.70;99.90;;;;;;6181903;23;20417;-54
2022/12/12 06:04:12;;;;;;;4.63;4.00;;;1.70;99.90;;;;;;6178502;23;20413;-52
2022/12/12 06:06:44;;;;;;;11.20;4.47;;;1.60;99.90;;;;;;6182676;23;20428;-47
2022/12/12 06:09:11;;;;;;;6.70;3.90;;;1.60;99.90;;;;;;6175814;23;20773;-51
2022/12/12 06:11:38;;;;;;;8.40;4.27;;;2.10;99.90;;;;;;6181890;23;20409;-54
2022/12/12 06:14:09;;;;;;;5.23;2.30;;;1.90;99.90;;;;;;6182064;23;20459;-51
2022/12/12 06:16:36;;;;;;;4.23;2.70;;;1.90;99.90;;;;;;6174852;23;20401;-51
2022/12/12 06:19:04;;;;;;;5.27;2.80;;;1.80;99.90;;;;;;6173119;23;20468;-54
2022/12/12 06:21:32;;;;;;;5.03;3.53;;;1.80;99.90;;;;;;6182220;23;20445;-55
2022/12/12 06:23:59;;;;;;;4.40;2.57;;;1.70;99.90;;;;;;6180930;23;20421;-51
2022/12/12 06:26:29;;;;;;;3.27;2.47;;;1.70;99.90;;;;;;6182187;23;20381;-47
2022/12/12 06:28:58;;;;;;;5.53;3.37;;;1.60;99.90;;;;;;6182360;23;20893;-48
2022/12/12 06:31:27;;;;;;;5.43;2.20;;;1.60;99.90;;;;;;6182249;23;20409;-51
2022/12/12 06:33:54;;;;;;;4.37;2.97;;;1.60;99.90;;;;;;6181869;23;20470;-52
2022/12/12 06:36:24;;;;;;;7.00;4.17;;;1.60;99.90;;;;;;6181166;23;20406;-52
2022/12/12 06:38:51;;;;;;;1.90;1.70;;;1.60;99.90;;;;;;6182408;23;20915;-55
2022/12/12 06:41:19;;;;;;;4.33;2.60;;;1.60;99.90;;;;;;6181931;23;20461;-49
2022/12/12 06:43:46;;;;;;;5.37;2.87;;;1.50;99.90;;;;;;6182158;23;20398;-54
2022/12/12 06:46:18;;;;;;;6.00;3.30;;;1.60;99.90;;;;;;6181559;23;20495;-52
2022/12/12 06:48:46;;;;;;;4.00;2.67;;;1.60;99.90;;;;;;6181454;23;20387;-55
2022/12/12 06:51:15;;;;;;;4.93;2.77;;;1.60;99.90;;;;;;6181072;23;20410;-54
2022/12/12 06:53:42;;;;;;;3.33;2.37;;;1.50;99.90;;;;;;6182083;23;20382;-51
2022/12/12 06:56:12;;;;;;;4.10;2.63;;;1.50;99.90;;;;;;6182365;23;20394;-53
2022/12/12 06:58:39;;;;;;;5.53;2.60;;;1.50;99.90;;;;;;6182205;23;20449;-55
2022/12/12 07:01:06;;;;;;;3.70;2.53;;;1.50;99.90;;;;;;6181626;23;20417;-51
2022/12/12 07:03:34;;;;;;;5.93;3.07;;;1.50;99.90;;;;;;6181840;23;20429;-49
2022/12/12 07:06:05;;;;;;;5.90;4.90;;;1.50;99.90;;;;;;6182020;23;20405;-51
2022/12/12 07:08:33;;;;;;;3.70;2.83;;;1.50;99.90;;;;;;6180835;23;20406;-50
2022/12/12 07:11:05;;;;;;;3.43;3.13;;;1.50;99.90;;;;;;6182233;23;20389;-50
2022/12/12 07:13:32;;;;;;;3.60;2.00;;;1.50;99.90;;;;;;6180833;23;20387;-52
2022/12/12 07:15:59;;;;;;;2.67;2.03;;;1.50;99.90;;;;;;6178114;23;20388;-52
2022/12/12 07:18:26;;;;;;;6.90;3.07;;;1.50;99.90;;;;;;6181845;23;20437;-48
2022/12/12 07:20:53;;;;;;;3.17;2.27;;;1.50;99.90;;;;;;6181740;23;20402;-55
2022/12/12 07:23:21;;;;;;;4.63;2.10;;;1.50;99.90;;;;;;6182011;23;20393;-50
2022/12/12 07:25:48;;;;;;;3.10;2.50;;;1.40;99.90;;;;;;6175657;23;20429;-53
2022/12/12 07:28:15;;;;;;;4.97;2.97;;;1.50;99.90;;;;;;6181634;23;20386;-56
2022/12/12 07:30:47;;;;;;;5.17;3.60;;;1.50;99.90;;;;;;6180884;23;20429;-55
2022/12/12 07:33:18;;;;;;;4.50;3.13;;;1.50;99.90;;;;;;6181676;23;20452;-51
2022/12/12 07:35:48;;;;;;;4.70;2.90;;;1.50;99.90;;;;;;6181552;23;20876;-50
2022/12/12 07:38:15;;;;;;;3.23;2.23;;;1.50;99.90;;;;;;6181605;23;20452;-53
2022/12/12 07:40:46;;;;;;;4.93;3.13;;;1.50;99.90;;;;;;6175833;23;20426;-51
2022/12/12 07:43:13;;;;;;;3.87;3.27;;;1.40;99.90;;;;;;6181848;23;20382;-54
2022/12/12 07:45:43;;;;;;;4.30;2.40;;;1.40;99.90;;;;;;6181387;23;20422;-49
2022/12/12 07:48:10;;;;;;;6.50;3.67;;;1.50;99.90;;;;;;6181646;23;20402;-52
2022/12/12 07:50:41;;;;;;;5.40;3.50;;;1.50;99.90;;;;;;6181418;23;20416;-52
2022/12/12 07:53:09;;;;;;;3.80;2.50;;;1.50;99.90;;;;;;6152015;23;20367;-48
2022/12/12 07:58:26;;;;;;;7.30;2.87;;;1.50;99.90;;;;;;6148704;23;20454;-52
2022/12/12 08:00:53;;;;;;;6.20;3.47;;;1.60;99.90;;;;;;6146022;23;20498;-50
2022/12/12 08:03:20;;;;;;;3.23;2.00;;;1.50;99.90;;;;;;6150550;23;20473;-50
2022/12/12 08:05:46;;;;;;;5.80;3.50;;;1.50;99.90;;;;;;6149138;23;20430;-50
2022/12/12 08:08:13;;;;;;;4.33;3.27;;;1.50;99.90;;;;;;6147967;23;20422;-54
2022/12/12 08:10:41;;;;;;;5.30;2.60;;;1.50;99.90;;;;;;6151981;23;20437;-53
2022/12/12 08:13:08;;;;;;;3.00;2.53;;;1.50;99.90;;;;;;6153737;23;20746;-53
2022/12/12 08:15:39;;;;;;;4.60;3.13;;;1.50;99.90;;;;;;6154053;23;20426;-50
2022/12/12 08:18:06;;;;;;;5.33;2.67;;;1.60;99.90;;;;;;6153127;23;20406;-48
2022/12/12 08:20:33;;;;;;;5.43;3.00;;;1.60;99.90;;;;;;6146400;23;20800;-53
2022/12/12 08:23:00;;;;;;;5.27;3.03;;;1.60;99.90;;;;;;6153074;23;20394;-54
2022/12/12 08:25:27;;;;;;;3.47;2.37;;;1.60;99.90;;;;;;6153518;23;20402;-51
2022/12/12 08:27:54;;;;;;;5.20;2.10;;;1.60;99.90;;;;;;6148614;23;20390;-49
2022/12/12 08:30:21;;;;;;;2.97;2.27;;;1.60;99.90;;;;;;6151909;23;20402;-51
2022/12/12 08:32:57;;;;;;;6.27;4.03;;;1.60;99.90;;;;;;6146172;23;20375;-55
2022/12/12 08:35:24;;;;;;;3.10;2.87;;;1.60;99.90;;;;;;6153642;23;20397;-50
2022/12/12 08:37:57;;;;;;;4.50;3.00;;;1.60;99.90;;;;;;6153343;23;20422;-53
2022/12/12 08:40:24;;;;;;;3.67;2.33;;;1.60;99.90;;;;;;6153676;23;20519;-49
2022/12/12 08:42:51;;;;;;;4.10;2.63;;;1.50;99.90;;;;;;6153503;23;20442;-54
2022/12/12 08:45:18;;;;;;;20.37;3.20;;;1.50;99.90;;;;;;6153668;23;20434;-53
2022/12/12 08:47:45;;;;;;;7.00;2.83;;;1.40;99.90;;;;;;6153769;23;20387;-53
2022/12/12 08:50:13;;;;;;;3.60;2.30;;;1.50;99.90;;;;;;6154066;23;20402;-51
2022/12/12 08:52:40;;;;;;;4.13;3.20;;;1.50;99.90;;;;;;6177638;23;20405;-48
2022/12/12 08:55:09;;;;;;;4.27;2.13;;;1.60;99.90;;;;;;6183089;23;20408;-57
2022/12/12 08:57:41;;;;;;;3.63;2.90;;;1.60;99.90;;;;;;6182122;23;20429;-58
2022/12/12 09:00:10;;;;;;;4.10;3.13;;;1.60;99.90;;;;;;6183467;23;20417;-53
2022/12/12 09:02:37;;;;;;;2.80;2.60;;;1.50;99.90;;;;;;6183442;23;20414;-60
2022/12/12 09:05:04;;;;;;;4.83;2.17;;;1.50;99.90;;;;;;6183489;23;20405;-54
2022/12/12 09:07:32;;;;;;;3.77;3.40;;;1.50;99.90;;;;;;6182618;23;20406;-54
2022/12/12 09:10:01;;;;;;;4.20;2.97;;;1.50;99.90;;;;;;6182960;23;20402;-51
2022/12/12 09:12:28;;;;;;;5.20;3.20;;;1.50;99.90;;;;;;6183049;23;20456;-51
2022/12/12 09:14:57;;;;;;;4.63;3.00;;;1.60;99.90;;;;;;6176949;23;20409;-54
2022/12/12 09:17:27;;;;;;;5.03;3.07;;;1.50;99.90;;;;;;6182840;23;20425;-51
2022/12/12 09:19:57;;;;;;;6.70;3.60;;;1.50;99.90;;;;;;6182616;23;20464;-55
2022/12/12 09:22:29;;;;;;;4.63;3.13;;;1.50;99.90;;;;;;6182798;23;20453;-49
2022/12/12 09:25:00;;;;;;;6.63;2.67;;;1.50;99.90;;;;;;6182441;23;20401;-52
2022/12/12 09:27:27;;;;;;;3.07;1.47;;;1.60;99.90;;;;;;6181881;23;20425;-52
2022/12/12 09:29:57;;;;;;;3.73;1.77;;;1.60;99.90;;;;;;6181797;23;20402;-53
2022/12/12 09:32:25;;;;;;;4.20;3.07;;;1.60;99.90;;;;;;6183004;23;20456;-52
2022/12/12 09:34:53;;;;;;;4.30;2.57;;;1.50;99.90;;;;;;6182845;23;20397;-48
2022/12/12 09:37:22;;;;;;;3.80;2.30;;;1.50;99.90;;;;;;6182178;23;20420;-52
2022/12/12 09:39:51;;;;;;;6.73;2.57;;;1.40;99.90;;;;;;6182271;23;20442;-55
2022/12/12 09:42:23;;;;;;;5.33;2.23;;;1.40;99.90;;;;;;6183068;23;20429;-53
2022/12/12 09:44:55;;;;;;;3.23;2.50;;;1.40;99.90;;;;;;6182990;23;20409;-58
2022/12/12 09:47:34;;;;;;;5.43;3.03;;;1.40;99.90;;;;;;6176607;23;20416;-51
2022/12/12 09:50:07;;;;;;;3.00;2.70;;;1.30;99.90;;;;;;6182586;23;20413;-50
2022/12/12 09:52:37;;;;;;;3.10;2.50;;;1.40;99.90;;;;;;6182092;23;20915;-49
2022/12/12 09:55:26;;;;;;;3.37;1.73;;;1.40;99.90;;;;;;6182926;23;20858;-51
2022/12/12 09:57:59;;;;;;;3.87;2.13;;;1.50;99.90;;;;;;6182339;23;20424;-49
2022/12/12 10:00:27;;;;;;;7.70;2.83;;;1.50;99.90;;;;;;6182258;23;20425;-54
2022/12/12 10:03:15;;;;;;;6.57;2.67;;;1.50;99.90;;;;;;6182212;23;20454;-54
2022/12/12 10:05:46;;;;;;;3.23;2.93;;;1.50;99.90;;;;;;6182557;23;20370;-54
2022/12/12 10:08:26;;;;;;;5.10;2.60;;;1.60;99.90;;;;;;6182453;23;20437;-52
2022/12/12 10:11:03;;;;;;;4.90;2.57;;;1.60;99.90;;;;;;6182356;23;20367;-50
2022/12/12 10:13:37;;;;;;;2.70;1.77;;;1.90;99.90;;;;;;6182149;23;20413;-48
2022/12/12 10:16:09;;;;;;;4.97;2.90;;;2.40;99.90;;;;;;6181591;23;20413;-52
2022/12/12 10:18:42;;;;;;;3.20;2.90;;;2.90;99.90;;;;;;6182814;23;20393;-49
2022/12/12 10:21:19;;;;;;;3.10;2.57;;;3.20;99.90;;;;;;6183072;23;20385;-61
2022/12/12 10:23:49;;;;;;;4.23;1.83;;;3.40;99.90;;;;;;6182519;23;20429;-56
2022/12/12 10:26:19;;;;;;;2.40;1.43;;;3.40;99.90;;;;;;6182193;23;20433;-60
2022/12/12 10:28:51;;;;;;;3.20;2.10;;;3.20;99.90;;;;;;6182355;23;20402;-55
2022/12/12 10:31:30;;;;;;;2.80;1.67;;;3.00;99.90;;;;;;6176411;23;20386;-57
2022/12/12 10:34:10;;;;;;;4.17;1.67;;;2.80;99.90;;;;;;6182424;23;20515;-58
2022/12/12 10:37:05;;;;;;;4.10;2.10;;;2.60;99.90;;;;;;6181661;23;20386;-66
2022/12/12 10:39:42;;;;;;;2.67;2.03;;;2.50;99.90;;;;;;6181513;23;20464;-52
2022/12/12 10:42:20;;;;;;;3.27;2.50;;;2.40;99.90;;;;;;6181333;23;20398;-54
2022/12/12 10:45:04;;;;;;;1.90;1.63;;;2.30;99.90;;;;;;6182510;23;20390;-50
2022/12/12 10:47:32;;;;;;;4.13;2.07;;;2.10;99.90;;;;;;6181204;23;20386;-51
2022/12/12 10:50:13;;;;;;;2.50;1.83;;;2.00;99.90;;;;;;6182014;23;20379;-58
2022/12/12 10:52:40;;;;;;;1.70;1.43;;;1.90;99.90;;;;;;6182174;23;20441;-55
2022/12/12 10:55:19;;;;;;;2.13;1.50;;;1.70;99.90;;;;;;6182520;23;20401;-57
2022/12/12 10:57:46;;;;;;;2.20;2.00;;;1.60;99.90;;;;;;6182354;23;20389;-52
2022/12/12 11:00:26;;;;;;;1.90;1.23;;;1.50;99.90;;;;;;6182366;23;20600;-50
2022/12/12 11:02:57;;;;;;;2.43;1.80;;;1.50;99.90;;;;;;6182139;23;20437;-50
2022/12/12 11:05:27;;;;;;;3.80;2.60;;;1.50;99.90;;;;;;6176073;23;20394;-49
2022/12/12 11:08:01;;;;;;;3.93;2.10;;;1.40;99.90;;;;;;6181520;23;20398;-52
2022/12/12 11:10:33;;;;;;;2.77;1.90;;;1.40;99.90;;;;;;6181981;23;20397;-54
2022/12/12 11:13:02;;;;;;;3.50;1.60;;;1.40;99.90;;;;;;6182278;23;20381;-49
2022/12/12 11:15:40;;;;;;;4.90;2.10;;;1.40;99.90;;;;;;6182219;23;20390;-53
2022/12/12 11:18:13;;;;;;;4.40;2.27;;;1.10;99.90;;;;;;6181927;23;20386;-51
2022/12/12 11:20:48;;;;;;;3.73;1.90;;;1.40;99.90;;;;;;6182017;23;20453;-48
2022/12/12 11:23:21;;;;;;;3.37;1.83;;;1.30;99.90;;;;;;6182218;23;20436;-47
2022/12/12 11:25:59;;;;;;;3.27;2.07;;;1.50;99.90;;;;;;6182030;23;20390;-54
2022/12/12 11:28:31;;;;;;;2.80;2.60;;;1.50;99.90;;;;;;6182284;23;20424;-52
2022/12/12 11:31:03;;;;;;;3.70;2.30;;;1.40;99.90;;;;;;6182319;23;20426;-50
2022/12/12 11:33:33;;;;;;;5.33;3.53;;;1.30;99.90;;;;;;6181888;23;20406;-48
2022/12/12 11:36:05;;;;;;;2.67;2.40;;;1.20;99.90;;;;;;6182608;23;20386;-48
2022/12/12 11:38:38;;;;;;;5.23;3.00;;;1.20;99.90;;;;;;6174469;23;20504;-48
2022/12/12 11:41:07;;;;;;;6.93;3.03;;;1.20;99.90;;;;;;6172999;23;20426;-48
2022/12/12 11:43:36;;;;;;;2.80;2.60;;;1.20;99.90;;;;;;6180378;23;20414;-53
2022/12/12 11:46:24;;;;;;;2.77;1.50;;;1.20;99.90;;;;;;6183040;23;20386;-48
2022/12/12 11:48:59;;;;;;;2.77;1.97;;;1.20;99.90;;;;;;6182883;23;20429;-51
2022/12/12 11:51:35;;;;;;;4.43;2.90;;;1.20;99.90;;;;;;6182111;23;20440;-51
2022/12/12 11:54:10;;;;;;;5.17;3.10;;;1.20;99.90;;;;;;6182580;23;20409;-47
2022/12/12 11:56:48;;;;;;;3.27;1.93;;;1.30;99.90;;;;;;6182943;23;20432;-56
2022/12/12 11:59:41;;;;;;;4.00;1.70;;;1.20;99.90;;;;;;6182249;23;20426;-49
2022/12/12 12:02:40;;;;;;;3.90;2.37;;;1.20;99.90;;;;;;6175001;23;20486;-54
2022/12/12 12:05:23;;;;;;;8.90;3.73;;;1.10;99.90;;;;;;6181816;23;20410;-49
2022/12/12 12:08:04;;;;;;;2.73;2.40;;;1.00;99.90;;;;;;6182723;23;20386;-52
2022/12/12 12:10:43;;;;;;;4.67;3.03;;;0.90;99.90;;;;;;6182980;23;20422;-53
2022/12/12 12:13:24;;;;;;;3.20;1.73;;;0.80;99.90;;;;;;6182778;23;20398;-57
2022/12/12 12:16:00;;;;;;;6.10;3.93;;;0.80;99.90;;;;;;6182464;23;20426;-56
2022/12/12 12:18:42;;;;;;;3.77;2.53;;;0.70;99.90;;;;;;6182355;23;20377;-54
2022/12/12 12:21:36;;;;;;;3.27;2.47;;;0.70;99.90;;;;;;6181852;23;21017;-56
2022/12/12 12:24:22;;;;;;;5.20;3.43;;;0.60;99.90;;;;;;6176088;23;20457;-56
2022/12/12 12:26:54;;;;;;;5.00;3.23;;;0.50;99.90;;;;;;6176703;23;20390;-51
2022/12/12 12:29:38;;;;;;;5.60;3.43;;;0.60;99.90;;;;;;6181104;23;20429;-53
2022/12/12 12:32:14;;;;;;;5.57;2.90;;;0.50;99.90;;;;;;6181827;23;20402;-53
2022/12/12 12:34:56;;;;;;;4.27;3.03;;;0.50;99.90;;;;;;6181289;23;20421;-53
2022/12/12 12:37:37;;;;;;;3.33;2.80;;;0.60;99.90;;;;;;6181438;23;20402;-50
2022/12/12 12:40:22;;;;;;;1.63;1.30;;;0.60;99.90;;;;;;6181834;23;20449;-56
2022/12/12 12:43:14;;;;;;;4.60;2.60;;;0.60;99.90;;;;;;6181910;23;20386;-54
2022/12/12 12:45:48;;;;;;;3.60;2.90;;;0.60;99.90;;;;;;6182140;23;20410;-54
2022/12/12 12:48:24;;;;;;;3.67;2.03;;;0.60;99.90;;;;;;6181701;23;20389;-47
2022/12/12 12:50:59;;;;;;;5.93;3.50;;;0.60;99.90;;;;;;6181885;23;20425;-49
2022/12/12 12:53:32;;;;;;;3.00;1.80;;;0.60;99.90;;;;;;6182454;23;20393;-46
2022/12/12 12:56:05;;;;;;;5.67;3.70;;;0.60;99.90;;;;;;6182867;23;20426;-45
2022/12/12 12:58:43;;;;;;;2.87;1.70;;;0.60;99.90;;;;;;6179119;23;20462;-52
2022/12/12 13:01:14;;;;;;;4.10;2.40;;;0.70;99.90;;;;;;6183011;23;20495;-57
2022/12/12 13:03:46;;;;;;;3.77;2.23;;;0.70;99.90;;;;;;6183260;23;20390;-55
2022/12/12 13:06:23;;;;;;;1.87;1.17;;;0.80;99.90;;;;;;6183602;23;20413;-54
2022/12/12 13:09:01;;;;;;;3.57;2.30;;;0.80;99.90;;;;;;6183110;23;20400;-53
2022/12/12 13:11:36;;;;;;;2.90;2.47;;;0.70;99.90;;;;;;6181812;23;20429;-53
2022/12/12 13:14:13;;;;;;;2.97;2.30;;;0.70;99.90;;;;;;6182794;23;20397;-55
2022/12/12 13:16:40;;;;;;;5.60;2.93;;;0.60;99.90;;;;;;6182698;23;20755;-54
2022/12/12 13:19:13;;;;;;;2.70;2.17;;;0.60;99.90;;;;;;6178720;23;20405;-50
2022/12/12 13:21:48;;;;;;;3.73;2.23;;;0.60;99.90;;;;;;6182009;23;20449;-54
2022/12/12 13:24:24;;;;;;;1.80;1.70;;;0.50;99.90;;;;;;6182747;23;20485;-54
2022/12/12 13:27:00;;;;;;;3.10;2.33;;;0.60;99.90;;;;;;6183009;23;20429;-55
2022/12/12 13:29:39;;;;;;;3.90;2.80;;;0.60;99.90;;;;;;6183660;23;20442;-51
2022/12/12 13:32:29;;;;;;;2.63;1.63;;;0.60;99.90;;;;;;6183197;23;20374;-54